sensor_id;sensor_type;location;lat;lon;timestamp;P1;durP1;ratioP1;P2;durP2;ratioP2
74471;SDS011;62920;53.572;10.050;2022-08-26T00:00:41;15.75;;;5.40;;
74471;SDS011;62920;53.572;10.050;2022-08-26T00:03:07;13.32;;;5.40;;
74471;SDS011;62920;53.572;10.050;2022-08-26T00:05:33;10.70;;;5.28;;
74471;SDS011;62920;53.572;10.050;2022-08-26T00:07:59;10.57;;;5.75;;
74471;SDS011;62920;53.572;10.050;2022-08-26T00:10:24;12.13;;;5.72;;
74471;SDS011;62920;53.572;10.050;2022-08-26T00:12:50;11.23;;;5.38;;
74471;SDS011;62920;53.572;10.050;2022-08-26T00:15:16;14.15;;;5.82;;
74471;SDS011;62920;53.572;10.050;2022-08-26T00:17:44;13.02;;;5.10;;
74471;SDS011;62920;53.572;10.050;2022-08-26T00:20:11;12.43;;;5.18;;
74471;SDS011;62920;53.572;10.050;2022-08-26T00:22:38;12.07;;;5.45;;
74471;SDS011;62920;53.572;10.050;2022-08-26T00:25:04;14.88;;;5.45;;
74471;SDS011;62920;53.572;10.050;2022-08-26T00:27:30;11.68;;;5.13;;
74471;SDS011;62920;53.572;10.050;2022-08-26T00:29:58;13.93;;;5.22;;
74471;SDS011;62920;53.572;10.050;2022-08-26T00:32:24;16.50;;;5.32;;
74471;SDS011;62920;53.572;10.050;2022-08-26T00:34:50;14.75;;;5.13;;
74471;SDS011;62920;53.572;10.050;2022-08-26T00:37:15;9.80;;;5.10;;
74471;SDS011;62920;53.572;10.050;2022-08-26T00:39:40;14.82;;;5.10;;
74471;SDS011;62920;53.572;10.050;2022-08-26T00:42:06;11.63;;;5.38;;
74471;SDS011;62920;53.572;10.050;2022-08-26T00:44:32;13.18;;;5.55;;
74471;SDS011;62920;53.572;10.050;2022-08-26T00:46:59;10.20;;;4.95;;
74471;SDS011;62920;53.572;10.050;2022-08-26T00:51:57;9.82;;;5.15;;
74471;SDS011;62920;53.572;10.050;2022-08-26T00:54:23;9.90;;;5.35;;
74471;SDS011;62920;53.572;10.050;2022-08-26T00:57:09;14.00;;;4.95;;
74471;SDS011;62920;53.572;10.050;2022-08-26T00:59:36;9.60;;;4.85;;
74471;SDS011;62920;53.572;10.050;2022-08-26T01:02:02;14.75;;;4.75;;
74471;SDS011;62920;53.572;10.050;2022-08-26T01:04:28;13.10;;;5.63;;
74471;SDS011;62920;53.572;10.050;2022-08-26T01:06:54;13.18;;;5.03;;
74471;SDS011;62920;53.572;10.050;2022-08-26T01:09:21;9.93;;;5.10;;
74471;SDS011;62920;53.572;10.050;2022-08-26T01:11:47;12.75;;;5.10;;
74471;SDS011;62920;53.572;10.050;2022-08-26T01:14:13;13.35;;;5.03;;
74471;SDS011;62920;53.572;10.050;2022-08-26T01:16:40;12.68;;;4.85;;
74471;SDS011;62920;53.572;10.050;2022-08-26T01:19:09;9.40;;;4.95;;
74471;SDS011;62920;53.572;10.050;2022-08-26T01:21:41;11.80;;;5.60;;
74471;SDS011;62920;53.572;10.050;2022-08-26T01:24:10;9.90;;;4.78;;
74471;SDS011;62920;53.572;10.050;2022-08-26T01:26:37;14.30;;;5.50;;
74471;SDS011;62920;53.572;10.050;2022-08-26T01:29:08;9.38;;;5.28;;
74471;SDS011;62920;53.572;10.050;2022-08-26T01:31:41;12.98;;;5.70;;
74471;SDS011;62920;53.572;10.050;2022-08-26T01:34:11;13.18;;;5.68;;
74471;SDS011;62920;53.572;10.050;2022-08-26T01:36:46;14.38;;;4.97;;
74471;SDS011;62920;53.572;10.050;2022-08-26T01:39:13;12.32;;;5.20;;
74471;SDS011;62920;53.572;10.050;2022-08-26T01:41:38;14.55;;;4.90;;
74471;SDS011;62920;53.572;10.050;2022-08-26T01:44:05;16.83;;;5.55;;
74471;SDS011;62920;53.572;10.050;2022-08-26T01:46:32;17.08;;;5.90;;
74471;SDS011;62920;53.572;10.050;2022-08-26T01:48:59;14.60;;;5.10;;
74471;SDS011;62920;53.572;10.050;2022-08-26T01:51:25;10.93;;;5.57;;
74471;SDS011;62920;53.572;10.050;2022-08-26T01:53:52;13.85;;;5.30;;
74471;SDS011;62920;53.572;10.050;2022-08-26T01:56:18;14.65;;;5.82;;
74471;SDS011;62920;53.572;10.050;2022-08-26T01:58:56;15.98;;;5.72;;
74471;SDS011;62920;53.572;10.050;2022-08-26T02:01:23;9.15;;;5.47;;
74471;SDS011;62920;53.572;10.050;2022-08-26T02:06:33;11.75;;;4.90;;
74471;SDS011;62920;53.572;10.050;2022-08-26T02:09:01;14.23;;;5.57;;
74471;SDS011;62920;53.572;10.050;2022-08-26T02:11:28;13.95;;;5.57;;
74471;SDS011;62920;53.572;10.050;2022-08-26T02:13:54;13.57;;;5.35;;
74471;SDS011;62920;53.572;10.050;2022-08-26T02:16:25;11.43;;;5.50;;
74471;SDS011;62920;53.572;10.050;2022-08-26T02:18:52;9.27;;;5.45;;
74471;SDS011;62920;53.572;10.050;2022-08-26T02:21:18;13.82;;;5.20;;
74471;SDS011;62920;53.572;10.050;2022-08-26T02:23:43;13.18;;;5.43;;
74471;SDS011;62920;53.572;10.050;2022-08-26T02:26:09;10.98;;;5.55;;
74471;SDS011;62920;53.572;10.050;2022-08-26T02:28:47;9.80;;;5.30;;
74471;SDS011;62920;53.572;10.050;2022-08-26T02:31:15;14.05;;;6.43;;
74471;SDS011;62920;53.572;10.050;2022-08-26T02:33:41;13.27;;;6.32;;
74471;SDS011;62920;53.572;10.050;2022-08-26T02:36:06;15.07;;;6.45;;
74471;SDS011;62920;53.572;10.050;2022-08-26T02:38:32;12.25;;;5.70;;
74471;SDS011;62920;53.572;10.050;2022-08-26T02:40:58;11.40;;;5.85;;
74471;SDS011;62920;53.572;10.050;2022-08-26T02:43:24;12.65;;;6.90;;
74471;SDS011;62920;53.572;10.050;2022-08-26T02:45:49;12.68;;;5.78;;
74471;SDS011;62920;53.572;10.050;2022-08-26T02:48:16;11.82;;;5.60;;
74471;SDS011;62920;53.572;10.050;2022-08-26T02:50:42;9.63;;;5.30;;
74471;SDS011;62920;53.572;10.050;2022-08-26T02:53:08;11.90;;;5.43;;
74471;SDS011;62920;53.572;10.050;2022-08-26T02:55:36;15.40;;;5.85;;
74471;SDS011;62920;53.572;10.050;2022-08-26T02:58:01;14.90;;;5.53;;
74471;SDS011;62920;53.572;10.050;2022-08-26T03:00:27;13.27;;;5.63;;
74471;SDS011;62920;53.572;10.050;2022-08-26T03:02:53;15.68;;;5.18;;
74471;SDS011;62920;53.572;10.050;2022-08-26T03:05:18;12.88;;;5.82;;
74471;SDS011;62920;53.572;10.050;2022-08-26T03:07:46;13.40;;;5.18;;
74471;SDS011;62920;53.572;10.050;2022-08-26T03:10:11;11.75;;;5.38;;
74471;SDS011;62920;53.572;10.050;2022-08-26T03:12:37;10.45;;;5.55;;
74471;SDS011;62920;53.572;10.050;2022-08-26T03:17:29;12.00;;;5.20;;
74471;SDS011;62920;53.572;10.050;2022-08-26T03:19:55;10.85;;;5.00;;
74471;SDS011;62920;53.572;10.050;2022-08-26T03:22:20;14.23;;;5.72;;
74471;SDS011;62920;53.572;10.050;2022-08-26T03:24:45;14.05;;;5.82;;
74471;SDS011;62920;53.572;10.050;2022-08-26T03:27:11;13.65;;;5.75;;
74471;SDS011;62920;53.572;10.050;2022-08-26T03:29:37;13.25;;;5.68;;
74471;SDS011;62920;53.572;10.050;2022-08-26T03:32:21;11.23;;;5.95;;
74471;SDS011;62920;53.572;10.050;2022-08-26T03:34:47;9.38;;;5.40;;
74471;SDS011;62920;53.572;10.050;2022-08-26T03:37:12;11.85;;;6.07;;
74471;SDS011;62920;53.572;10.050;2022-08-26T03:39:38;16.67;;;6.13;;
74471;SDS011;62920;53.572;10.050;2022-08-26T03:42:03;12.23;;;6.03;;
74471;SDS011;62920;53.572;10.050;2022-08-26T03:44:30;13.38;;;6.07;;
74471;SDS011;62920;53.572;10.050;2022-08-26T03:46:55;13.23;;;6.05;;
74471;SDS011;62920;53.572;10.050;2022-08-26T03:49:21;13.95;;;5.88;;
74471;SDS011;62920;53.572;10.050;2022-08-26T03:51:46;8.70;;;6.00;;
74471;SDS011;62920;53.572;10.050;2022-08-26T03:54:12;12.88;;;5.85;;
74471;SDS011;62920;53.572;10.050;2022-08-26T03:56:37;16.55;;;6.30;;
74471;SDS011;62920;53.572;10.050;2022-08-26T03:59:03;15.10;;;7.65;;
74471;SDS011;62920;53.572;10.050;2022-08-26T04:01:29;13.10;;;6.63;;
74471;SDS011;62920;53.572;10.050;2022-08-26T04:03:54;12.05;;;6.05;;
74471;SDS011;62920;53.572;10.050;2022-08-26T04:06:44;11.98;;;6.10;;
74471;SDS011;62920;53.572;10.050;2022-08-26T04:09:10;18.02;;;7.55;;
74471;SDS011;62920;53.572;10.050;2022-08-26T04:11:37;13.25;;;6.75;;
74471;SDS011;62920;53.572;10.050;2022-08-26T04:14:09;14.07;;;5.85;;
74471;SDS011;62920;53.572;10.050;2022-08-26T04:16:38;10.57;;;5.47;;
74471;SDS011;62920;53.572;10.050;2022-08-26T04:19:04;12.18;;;6.43;;
74471;SDS011;62920;53.572;10.050;2022-08-26T04:21:30;11.63;;;6.30;;
74471;SDS011;62920;53.572;10.050;2022-08-26T04:23:55;10.35;;;6.47;;
74471;SDS011;62920;53.572;10.050;2022-08-26T04:26:21;10.55;;;6.25;;
74471;SDS011;62920;53.572;10.050;2022-08-26T04:28:48;10.50;;;6.15;;
74471;SDS011;62920;53.572;10.050;2022-08-26T04:31:15;16.55;;;6.65;;
74471;SDS011;62920;53.572;10.050;2022-08-26T04:33:42;15.73;;;6.20;;
74471;SDS011;62920;53.572;10.050;2022-08-26T04:36:08;17.08;;;6.57;;
74471;SDS011;62920;53.572;10.050;2022-08-26T04:38:34;14.65;;;6.88;;
74471;SDS011;62920;53.572;10.050;2022-08-26T04:41:00;14.68;;;6.72;;
74471;SDS011;62920;53.572;10.050;2022-08-26T04:43:27;12.00;;;5.90;;
74471;SDS011;62920;53.572;10.050;2022-08-26T04:45:55;12.98;;;6.55;;
74471;SDS011;62920;53.572;10.050;2022-08-26T04:48:24;13.30;;;6.65;;
74471;SDS011;62920;53.572;10.050;2022-08-26T04:50:50;13.30;;;6.65;;
74471;SDS011;62920;53.572;10.050;2022-08-26T04:53:16;15.40;;;6.78;;
74471;SDS011;62920;53.572;10.050;2022-08-26T04:55:41;19.50;;;7.00;;
74471;SDS011;62920;53.572;10.050;2022-08-26T04:58:07;14.15;;;6.55;;
74471;SDS011;62920;53.572;10.050;2022-08-26T05:00:35;14.25;;;6.95;;
74471;SDS011;62920;53.572;10.050;2022-08-26T05:03:00;12.75;;;6.32;;
74471;SDS011;62920;53.572;10.050;2022-08-26T05:05:25;14.23;;;6.28;;
74471;SDS011;62920;53.572;10.050;2022-08-26T05:07:51;13.55;;;6.57;;
74471;SDS011;62920;53.572;10.050;2022-08-26T05:10:18;13.63;;;6.80;;
74471;SDS011;62920;53.572;10.050;2022-08-26T05:12:43;11.60;;;6.57;;
74471;SDS011;62920;53.572;10.050;2022-08-26T05:15:09;11.82;;;6.88;;
74471;SDS011;62920;53.572;10.050;2022-08-26T05:17:35;14.07;;;6.70;;
74471;SDS011;62920;53.572;10.050;2022-08-26T05:20:01;15.00;;;6.82;;
74471;SDS011;62920;53.572;10.050;2022-08-26T05:22:26;18.90;;;7.05;;
74471;SDS011;62920;53.572;10.050;2022-08-26T05:24:52;16.65;;;7.30;;
74471;SDS011;62920;53.572;10.050;2022-08-26T05:27:17;19.42;;;7.72;;
74471;SDS011;62920;53.572;10.050;2022-08-26T05:29:43;15.63;;;6.18;;
74471;SDS011;62920;53.572;10.050;2022-08-26T05:32:08;12.45;;;6.30;;
74471;SDS011;62920;53.572;10.050;2022-08-26T05:34:34;14.95;;;6.22;;
74471;SDS011;62920;53.572;10.050;2022-08-26T05:36:59;17.38;;;6.93;;
74471;SDS011;62920;53.572;10.050;2022-08-26T05:39:24;18.02;;;6.65;;
74471;SDS011;62920;53.572;10.050;2022-08-26T05:41:50;16.70;;;6.80;;
74471;SDS011;62920;53.572;10.050;2022-08-26T05:44:16;10.35;;;6.30;;
74471;SDS011;62920;53.572;10.050;2022-08-26T05:46:43;15.18;;;6.80;;
74471;SDS011;62920;53.572;10.050;2022-08-26T05:49:09;16.02;;;6.85;;
74471;SDS011;62920;53.572;10.050;2022-08-26T05:51:37;21.77;;;7.53;;
74471;SDS011;62920;53.572;10.050;2022-08-26T05:54:03;14.35;;;6.97;;
74471;SDS011;62920;53.572;10.050;2022-08-26T05:56:30;13.77;;;6.72;;
74471;SDS011;62920;53.572;10.050;2022-08-26T05:58:55;14.10;;;6.40;;
74471;SDS011;62920;53.572;10.050;2022-08-26T06:01:22;15.80;;;7.15;;
74471;SDS011;62920;53.572;10.050;2022-08-26T06:03:53;14.52;;;7.13;;
74471;SDS011;62920;53.572;10.050;2022-08-26T06:06:21;15.80;;;7.15;;
74471;SDS011;62920;53.572;10.050;2022-08-26T06:08:52;14.52;;;6.75;;
74471;SDS011;62920;53.572;10.050;2022-08-26T06:11:19;11.90;;;7.07;;
74471;SDS011;62920;53.572;10.050;2022-08-26T06:13:49;15.65;;;6.95;;
74471;SDS011;62920;53.572;10.050;2022-08-26T06:18:42;13.48;;;6.70;;
74471;SDS011;62920;53.572;10.050;2022-08-26T06:23:41;15.10;;;7.85;;
74471;SDS011;62920;53.572;10.050;2022-08-26T06:26:25;12.18;;;6.43;;
74471;SDS011;62920;53.572;10.050;2022-08-26T06:28:51;12.50;;;6.68;;
74471;SDS011;62920;53.572;10.050;2022-08-26T06:31:16;15.95;;;7.10;;
74471;SDS011;62920;53.572;10.050;2022-08-26T06:33:42;12.20;;;6.88;;
74471;SDS011;62920;53.572;10.050;2022-08-26T06:36:08;12.65;;;7.35;;
74471;SDS011;62920;53.572;10.050;2022-08-26T06:38:39;15.88;;;6.95;;
74471;SDS011;62920;53.572;10.050;2022-08-26T06:41:06;15.60;;;6.82;;
74471;SDS011;62920;53.572;10.050;2022-08-26T06:43:34;13.48;;;6.90;;
74471;SDS011;62920;53.572;10.050;2022-08-26T06:46:00;15.15;;;6.82;;
74471;SDS011;62920;53.572;10.050;2022-08-26T06:48:27;13.85;;;6.75;;
74471;SDS011;62920;53.572;10.050;2022-08-26T06:51:07;16.40;;;6.68;;
74471;SDS011;62920;53.572;10.050;2022-08-26T06:53:40;19.92;;;6.72;;
74471;SDS011;62920;53.572;10.050;2022-08-26T06:56:08;14.77;;;6.55;;
74471;SDS011;62920;53.572;10.050;2022-08-26T06:58:35;15.50;;;7.35;;
74471;SDS011;62920;53.572;10.050;2022-08-26T07:01:01;13.85;;;7.00;;
74471;SDS011;62920;53.572;10.050;2022-08-26T07:05:53;12.20;;;6.40;;
74471;SDS011;62920;53.572;10.050;2022-08-26T07:08:25;12.02;;;6.55;;
74471;SDS011;62920;53.572;10.050;2022-08-26T07:10:51;13.95;;;7.28;;
74471;SDS011;62920;53.572;10.050;2022-08-26T07:13:17;13.35;;;6.70;;
74471;SDS011;62920;53.572;10.050;2022-08-26T07:15:42;15.38;;;7.30;;
74471;SDS011;62920;53.572;10.050;2022-08-26T07:18:08;15.52;;;6.85;;
74471;SDS011;62920;53.572;10.050;2022-08-26T07:20:37;15.00;;;7.43;;
74471;SDS011;62920;53.572;10.050;2022-08-26T07:23:04;14.43;;;6.47;;
74471;SDS011;62920;53.572;10.050;2022-08-26T07:25:31;13.73;;;6.18;;
74471;SDS011;62920;53.572;10.050;2022-08-26T07:27:56;16.90;;;7.28;;
74471;SDS011;62920;53.572;10.050;2022-08-26T07:30:22;17.33;;;6.60;;
74471;SDS011;62920;53.572;10.050;2022-08-26T07:32:47;16.40;;;6.32;;
74471;SDS011;62920;53.572;10.050;2022-08-26T07:37:39;14.45;;;6.63;;
74471;SDS011;62920;53.572;10.050;2022-08-26T07:40:04;13.20;;;6.60;;
74471;SDS011;62920;53.572;10.050;2022-08-26T07:42:30;13.48;;;6.40;;
74471;SDS011;62920;53.572;10.050;2022-08-26T07:44:55;16.52;;;5.93;;
74471;SDS011;62920;53.572;10.050;2022-08-26T07:47:21;13.60;;;5.95;;
74471;SDS011;62920;53.572;10.050;2022-08-26T07:49:46;14.27;;;5.93;;
74471;SDS011;62920;53.572;10.050;2022-08-26T07:52:12;11.88;;;5.47;;
74471;SDS011;62920;53.572;10.050;2022-08-26T07:54:37;18.45;;;6.65;;
74471;SDS011;62920;53.572;10.050;2022-08-26T07:57:04;14.82;;;5.60;;
74471;SDS011;62920;53.572;10.050;2022-08-26T07:59:29;12.27;;;5.93;;
74471;SDS011;62920;53.572;10.050;2022-08-26T08:01:55;10.60;;;5.43;;
74471;SDS011;62920;53.572;10.050;2022-08-26T08:04:23;15.27;;;6.57;;
74471;SDS011;62920;53.572;10.050;2022-08-26T08:06:48;11.75;;;5.38;;
74471;SDS011;62920;53.572;10.050;2022-08-26T08:09:14;14.27;;;5.43;;
74471;SDS011;62920;53.572;10.050;2022-08-26T08:11:39;10.68;;;5.53;;
74471;SDS011;62920;53.572;10.050;2022-08-26T08:16:30;17.42;;;6.70;;
74471;SDS011;62920;53.572;10.050;2022-08-26T08:18:56;13.00;;;5.38;;
74471;SDS011;62920;53.572;10.050;2022-08-26T08:21:22;11.07;;;5.82;;
74471;SDS011;62920;53.572;10.050;2022-08-26T08:23:49;21.13;;;6.15;;
74471;SDS011;62920;53.572;10.050;2022-08-26T08:26:14;16.58;;;6.22;;
74471;SDS011;62920;53.572;10.050;2022-08-26T08:28:40;13.50;;;5.85;;
74471;SDS011;62920;53.572;10.050;2022-08-26T08:33:31;18.17;;;6.10;;
74471;SDS011;62920;53.572;10.050;2022-08-26T08:35:57;16.05;;;7.10;;
74471;SDS011;62920;53.572;10.050;2022-08-26T08:38:24;18.85;;;7.18;;
74471;SDS011;62920;53.572;10.050;2022-08-26T08:40:50;10.38;;;6.07;;
74471;SDS011;62920;53.572;10.050;2022-08-26T08:45:54;12.77;;;6.35;;
74471;SDS011;62920;53.572;10.050;2022-08-26T08:48:27;11.45;;;6.03;;
74471;SDS011;62920;53.572;10.050;2022-08-26T08:50:57;14.50;;;6.22;;
74471;SDS011;62920;53.572;10.050;2022-08-26T08:53:36;15.27;;;6.47;;
74471;SDS011;62920;53.572;10.050;2022-08-26T08:56:09;13.07;;;6.53;;
74471;SDS011;62920;53.572;10.050;2022-08-26T09:01:41;17.85;;;6.68;;
74471;SDS011;62920;53.572;10.050;2022-08-26T09:07:09;17.55;;;6.20;;
74471;SDS011;62920;53.572;10.050;2022-08-26T09:09:39;16.73;;;6.32;;
74471;SDS011;62920;53.572;10.050;2022-08-26T09:12:10;14.23;;;5.90;;
74471;SDS011;62920;53.572;10.050;2022-08-26T09:14:38;12.60;;;5.95;;
74471;SDS011;62920;53.572;10.050;2022-08-26T09:19:33;15.30;;;5.60;;
74471;SDS011;62920;53.572;10.050;2022-08-26T09:22:04;14.32;;;6.25;;
74471;SDS011;62920;53.572;10.050;2022-08-26T09:26:55;14.80;;;6.63;;
74471;SDS011;62920;53.572;10.050;2022-08-26T09:29:27;14.73;;;6.03;;
74471;SDS011;62920;53.572;10.050;2022-08-26T09:32:11;14.80;;;6.30;;
74471;SDS011;62920;53.572;10.050;2022-08-26T09:43:06;16.90;;;6.32;;
74471;SDS011;62920;53.572;10.050;2022-08-26T09:45:48;10.70;;;6.03;;
74471;SDS011;62920;53.572;10.050;2022-08-26T09:48:32;20.75;;;6.68;;
74471;SDS011;62920;53.572;10.050;2022-08-26T09:51:03;12.95;;;6.10;;
74471;SDS011;62920;53.572;10.050;2022-08-26T09:53:34;18.83;;;6.60;;
74471;SDS011;62920;53.572;10.050;2022-08-26T09:56:44;20.17;;;6.03;;
74471;SDS011;62920;53.572;10.050;2022-08-26T09:58:57;13.93;;;6.53;;
74471;SDS011;62920;53.572;10.050;2022-08-26T10:06:31;15.25;;;6.55;;
74471;SDS011;62920;53.572;10.050;2022-08-26T10:09:04;17.48;;;7.15;;
74471;SDS011;62920;53.572;10.050;2022-08-26T10:14:01;16.33;;;6.20;;
74471;SDS011;62920;53.572;10.050;2022-08-26T10:16:33;11.77;;;6.32;;
74471;SDS011;62920;53.572;10.050;2022-08-26T10:19:08;19.20;;;6.22;;
74471;SDS011;62920;53.572;10.050;2022-08-26T10:24:24;15.77;;;5.95;;
74471;SDS011;62920;53.572;10.050;2022-08-26T10:27:38;16.80;;;6.15;;
74471;SDS011;62920;53.572;10.050;2022-08-26T10:30:06;14.68;;;6.15;;
74471;SDS011;62920;53.572;10.050;2022-08-26T10:32:44;15.57;;;5.78;;
74471;SDS011;62920;53.572;10.050;2022-08-26T10:35:12;17.33;;;5.90;;
74471;SDS011;62920;53.572;10.050;2022-08-26T10:37:39;17.50;;;6.07;;
74471;SDS011;62920;53.572;10.050;2022-08-26T10:40:10;17.77;;;6.20;;
74471;SDS011;62920;53.572;10.050;2022-08-26T10:42:41;20.75;;;6.35;;
74471;SDS011;62920;53.572;10.050;2022-08-26T10:45:15;17.08;;;6.50;;
74471;SDS011;62920;53.572;10.050;2022-08-26T10:47:46;17.50;;;6.38;;
74471;SDS011;62920;53.572;10.050;2022-08-26T10:50:15;13.75;;;5.90;;
74471;SDS011;62920;53.572;10.050;2022-08-26T11:02:12;21.13;;;7.18;;
74471;SDS011;62920;53.572;10.050;2022-08-26T11:04:58;14.55;;;6.22;;
74471;SDS011;62920;53.572;10.050;2022-08-26T11:07:35;15.15;;;6.10;;
74471;SDS011;62920;53.572;10.050;2022-08-26T11:12:49;15.38;;;5.50;;
74471;SDS011;62920;53.572;10.050;2022-08-26T11:22:50;18.85;;;6.13;;
74471;SDS011;62920;53.572;10.050;2022-08-26T11:25:21;13.20;;;5.55;;
74471;SDS011;62920;53.572;10.050;2022-08-26T11:27:51;15.80;;;6.00;;
74471;SDS011;62920;53.572;10.050;2022-08-26T11:32:51;16.40;;;6.13;;
74471;SDS011;62920;53.572;10.050;2022-08-26T11:40:13;21.38;;;5.93;;
74471;SDS011;62920;53.572;10.050;2022-08-26T11:42:42;18.50;;;6.13;;
74471;SDS011;62920;53.572;10.050;2022-08-26T11:47:54;13.20;;;5.13;;
74471;SDS011;62920;53.572;10.050;2022-08-26T11:52:58;16.13;;;5.07;;
74471;SDS011;62920;53.572;10.050;2022-08-26T11:55:31;11.85;;;5.30;;
74471;SDS011;62920;53.572;10.050;2022-08-26T11:57:58;19.92;;;4.75;;
74471;SDS011;62920;53.572;10.050;2022-08-26T12:00:25;14.10;;;5.13;;
74471;SDS011;62920;53.572;10.050;2022-08-26T12:02:52;14.20;;;5.03;;
74471;SDS011;62920;53.572;10.050;2022-08-26T12:05:21;18.48;;;4.85;;
74471;SDS011;62920;53.572;10.050;2022-08-26T12:07:50;16.73;;;4.80;;
74471;SDS011;62920;53.572;10.050;2022-08-26T12:10:29;15.80;;;4.32;;
74471;SDS011;62920;53.572;10.050;2022-08-26T12:12:57;12.50;;;4.88;;
74471;SDS011;62920;53.572;10.050;2022-08-26T12:15:24;17.70;;;4.22;;
74471;SDS011;62920;53.572;10.050;2022-08-26T12:17:51;16.08;;;5.22;;
74471;SDS011;62920;53.572;10.050;2022-08-26T12:23:35;11.45;;;4.35;;
74471;SDS011;62920;53.572;10.050;2022-08-26T12:26:10;9.52;;;4.18;;
74471;SDS011;62920;53.572;10.050;2022-08-26T12:28:44;11.70;;;4.65;;
74471;SDS011;62920;53.572;10.050;2022-08-26T12:31:17;13.18;;;4.75;;
74471;SDS011;62920;53.572;10.050;2022-08-26T12:33:46;13.75;;;4.22;;
74471;SDS011;62920;53.572;10.050;2022-08-26T12:36:12;12.85;;;4.82;;
74471;SDS011;62920;53.572;10.050;2022-08-26T12:38:37;14.10;;;4.55;;
74471;SDS011;62920;53.572;10.050;2022-08-26T12:41:04;17.42;;;4.50;;
74471;SDS011;62920;53.572;10.050;2022-08-26T12:43:40;16.45;;;4.80;;
74471;SDS011;62920;53.572;10.050;2022-08-26T12:46:08;15.82;;;4.93;;
74471;SDS011;62920;53.572;10.050;2022-08-26T12:48:36;10.77;;;4.60;;
74471;SDS011;62920;53.572;10.050;2022-08-26T12:51:04;14.77;;;4.43;;
74471;SDS011;62920;53.572;10.050;2022-08-26T12:53:32;14.77;;;5.35;;
74471;SDS011;62920;53.572;10.050;2022-08-26T12:55:59;13.93;;;4.60;;
74471;SDS011;62920;53.572;10.050;2022-08-26T12:58:34;14.88;;;4.70;;
74471;SDS011;62920;53.572;10.050;2022-08-26T13:06:10;14.38;;;5.50;;
74471;SDS011;62920;53.572;10.050;2022-08-26T13:08:40;13.82;;;5.32;;
74471;SDS011;62920;53.572;10.050;2022-08-26T13:11:12;16.67;;;5.90;;
74471;SDS011;62920;53.572;10.050;2022-08-26T13:13:42;18.75;;;6.05;;
74471;SDS011;62920;53.572;10.050;2022-08-26T13:16:08;16.77;;;6.18;;
74471;SDS011;62920;53.572;10.050;2022-08-26T13:18:33;17.98;;;6.22;;
74471;SDS011;62920;53.572;10.050;2022-08-26T13:23:24;11.52;;;5.85;;
74471;SDS011;62920;53.572;10.050;2022-08-26T13:25:50;19.27;;;6.35;;
74471;SDS011;62920;53.572;10.050;2022-08-26T13:30:41;15.55;;;5.60;;
74471;SDS011;62920;53.572;10.050;2022-08-26T13:33:08;15.00;;;5.75;;
74471;SDS011;62920;53.572;10.050;2022-08-26T13:35:34;14.57;;;5.70;;
74471;SDS011;62920;53.572;10.050;2022-08-26T13:37:59;17.17;;;5.97;;
74471;SDS011;62920;53.572;10.050;2022-08-26T13:40:24;20.02;;;6.22;;
74471;SDS011;62920;53.572;10.050;2022-08-26T13:42:50;13.85;;;5.85;;
74471;SDS011;62920;53.572;10.050;2022-08-26T13:47:41;15.43;;;6.32;;
74471;SDS011;62920;53.572;10.050;2022-08-26T13:52:31;12.63;;;5.95;;
74471;SDS011;62920;53.572;10.050;2022-08-26T13:57:24;14.63;;;6.75;;
74471;SDS011;62920;53.572;10.050;2022-08-26T13:59:51;18.50;;;6.03;;
74471;SDS011;62920;53.572;10.050;2022-08-26T14:02:18;12.90;;;6.40;;
74471;SDS011;62920;53.572;10.050;2022-08-26T14:07:08;16.07;;;6.50;;
74471;SDS011;62920;53.572;10.050;2022-08-26T14:11:59;14.38;;;6.40;;
74471;SDS011;62920;53.572;10.050;2022-08-26T14:16:50;16.38;;;6.93;;
74471;SDS011;62920;53.572;10.050;2022-08-26T14:21:41;10.90;;;5.80;;
74471;SDS011;62920;53.572;10.050;2022-08-26T14:26:32;18.03;;;9.30;;
74471;SDS011;62920;53.572;10.050;2022-08-26T14:31:24;14.32;;;6.60;;
74471;SDS011;62920;53.572;10.050;2022-08-26T14:33:50;22.10;;;6.72;;
74471;SDS011;62920;53.572;10.050;2022-08-26T14:38:56;12.02;;;6.07;;
74471;SDS011;62920;53.572;10.050;2022-08-26T14:41:25;17.58;;;6.47;;
74471;SDS011;62920;53.572;10.050;2022-08-26T14:44:10;21.23;;;6.93;;
74471;SDS011;62920;53.572;10.050;2022-08-26T14:46:40;15.93;;;6.70;;
74471;SDS011;62920;53.572;10.050;2022-08-26T14:49:10;13.93;;;6.53;;
74471;SDS011;62920;53.572;10.050;2022-08-26T14:54:02;16.85;;;6.63;;
74471;SDS011;62920;53.572;10.050;2022-08-26T14:56:59;17.73;;;6.25;;
74471;SDS011;62920;53.572;10.050;2022-08-26T14:59:31;18.77;;;6.85;;
74471;SDS011;62920;53.572;10.050;2022-08-26T15:01:58;16.83;;;6.57;;
74471;SDS011;62920;53.572;10.050;2022-08-26T15:06:50;17.48;;;6.55;;
74471;SDS011;62920;53.572;10.050;2022-08-26T15:09:16;14.52;;;5.50;;
74471;SDS011;62920;53.572;10.050;2022-08-26T15:14:07;13.32;;;5.43;;
74471;SDS011;62920;53.572;10.050;2022-08-26T15:16:34;12.27;;;5.18;;
74471;SDS011;62920;53.572;10.050;2022-08-26T15:21:28;13.38;;;5.20;;
74471;SDS011;62920;53.572;10.050;2022-08-26T15:26:19;13.40;;;5.07;;
74471;SDS011;62920;53.572;10.050;2022-08-26T15:31:09;10.83;;;4.97;;
74471;SDS011;62920;53.572;10.050;2022-08-26T15:36:01;11.35;;;4.95;;
74471;SDS011;62920;53.572;10.050;2022-08-26T15:38:31;9.48;;;4.57;;
74471;SDS011;62920;53.572;10.050;2022-08-26T15:40:58;14.60;;;5.50;;
74471;SDS011;62920;53.572;10.050;2022-08-26T15:43:25;11.15;;;5.07;;
74471;SDS011;62920;53.572;10.050;2022-08-26T15:45:51;9.40;;;4.63;;
74471;SDS011;62920;53.572;10.050;2022-08-26T15:48:17;10.45;;;4.50;;
74471;SDS011;62920;53.572;10.050;2022-08-26T15:53:15;8.30;;;4.40;;
74471;SDS011;62920;53.572;10.050;2022-08-26T15:55:41;13.93;;;4.72;;
74471;SDS011;62920;53.572;10.050;2022-08-26T16:00:31;8.48;;;4.53;;
74471;SDS011;62920;53.572;10.050;2022-08-26T16:05:22;8.70;;;4.53;;
74471;SDS011;62920;53.572;10.050;2022-08-26T16:07:47;8.13;;;4.63;;
74471;SDS011;62920;53.572;10.050;2022-08-26T16:10:13;9.52;;;4.18;;
74471;SDS011;62920;53.572;10.050;2022-08-26T16:12:38;5.68;;;4.03;;
74471;SDS011;62920;53.572;10.050;2022-08-26T16:17:29;8.43;;;4.10;;
74471;SDS011;62920;53.572;10.050;2022-08-26T16:22:20;5.85;;;3.20;;
74471;SDS011;62920;53.572;10.050;2022-08-26T16:24:45;8.23;;;3.47;;
74471;SDS011;62920;53.572;10.050;2022-08-26T16:27:11;7.80;;;3.50;;
74471;SDS011;62920;53.572;10.050;2022-08-26T16:29:36;8.65;;;3.42;;
74471;SDS011;62920;53.572;10.050;2022-08-26T16:32:03;6.15;;;2.42;;
74471;SDS011;62920;53.572;10.050;2022-08-26T16:34:32;5.07;;;2.65;;
74471;SDS011;62920;53.572;10.050;2022-08-26T16:36:58;5.72;;;2.10;;
74471;SDS011;62920;53.572;10.050;2022-08-26T16:41:49;9.13;;;2.95;;
74471;SDS011;62920;53.572;10.050;2022-08-26T16:44:15;7.13;;;3.15;;
74471;SDS011;62920;53.572;10.050;2022-08-26T16:46:40;5.60;;;2.85;;
74471;SDS011;62920;53.572;10.050;2022-08-26T16:49:06;6.05;;;2.90;;
74471;SDS011;62920;53.572;10.050;2022-08-26T16:51:31;6.65;;;2.97;;
74471;SDS011;62920;53.572;10.050;2022-08-26T16:53:57;6.18;;;2.88;;
74471;SDS011;62920;53.572;10.050;2022-08-26T16:56:27;7.93;;;3.13;;
74471;SDS011;62920;53.572;10.050;2022-08-26T16:58:54;6.57;;;3.25;;
74471;SDS011;62920;53.572;10.050;2022-08-26T17:01:19;8.05;;;3.00;;
74471;SDS011;62920;53.572;10.050;2022-08-26T17:06:11;11.57;;;3.17;;